sensor_id;sensor_type;location;lat;lon;timestamp;P1;durP1;ratioP1;P2;durP2;ratioP2
54745;SDS011;40640;48.130;11.356;2023-06-04T00:03:45;15.68;;;7.57;;
54745;SDS011;40640;48.130;11.356;2023-06-04T00:07:48;11.15;;;7.15;;
54745;SDS011;40640;48.130;11.356;2023-06-04T00:11:51;12.70;;;7.75;;
54745;SDS011;40640;48.130;11.356;2023-06-04T00:15:54;13.90;;;7.15;;
54745;SDS011;40640;48.130;11.356;2023-06-04T00:19:58;15.38;;;7.38;;
54745;SDS011;40640;48.130;11.356;2023-06-04T00:24:01;12.55;;;7.60;;
54745;SDS011;40640;48.130;11.356;2023-06-04T00:28:04;10.75;;;6.88;;
54745;SDS011;40640;48.130;11.356;2023-06-04T00:32:08;17.83;;;7.55;;
54745;SDS011;40640;48.130;11.356;2023-06-04T00:36:13;12.93;;;7.65;;
54745;SDS011;40640;48.130;11.356;2023-06-04T00:40:15;13.50;;;8.18;;
54745;SDS011;40640;48.130;11.356;2023-06-04T00:44:18;13.77;;;7.85;;
54745;SDS011;40640;48.130;11.356;2023-06-04T00:48:23;13.27;;;7.57;;
54745;SDS011;40640;48.130;11.356;2023-06-04T00:52:30;12.40;;;7.45;;
54745;SDS011;40640;48.130;11.356;2023-06-04T00:56:33;11.98;;;8.05;;
54745;SDS011;40640;48.130;11.356;2023-06-04T01:00:35;15.35;;;7.60;;
54745;SDS011;40640;48.130;11.356;2023-06-04T01:04:41;9.95;;;6.72;;
54745;SDS011;40640;48.130;11.356;2023-06-04T01:08:50;10.77;;;7.10;;
54745;SDS011;40640;48.130;11.356;2023-06-04T01:12:55;15.18;;;6.88;;
54745;SDS011;40640;48.130;11.356;2023-06-04T01:16:59;12.68;;;7.25;;
54745;SDS011;40640;48.130;11.356;2023-06-04T01:21:10;9.80;;;6.43;;
54745;SDS011;40640;48.130;11.356;2023-06-04T01:25:22;12.20;;;7.50;;
54745;SDS011;40640;48.130;11.356;2023-06-04T01:29:28;11.55;;;7.65;;
54745;SDS011;40640;48.130;11.356;2023-06-04T01:33:31;14.52;;;7.47;;
54745;SDS011;40640;48.130;11.356;2023-06-04T01:37:36;11.73;;;7.03;;
54745;SDS011;40640;48.130;11.356;2023-06-04T01:41:40;10.75;;;7.50;;
54745;SDS011;40640;48.130;11.356;2023-06-04T01:45:44;9.52;;;7.38;;
54745;SDS011;40640;48.130;11.356;2023-06-04T01:49:47;11.38;;;7.45;;
54745;SDS011;40640;48.130;11.356;2023-06-04T01:53:50;13.60;;;7.72;;
54745;SDS011;40640;48.130;11.356;2023-06-04T01:57:55;15.43;;;8.02;;
54745;SDS011;40640;48.130;11.356;2023-06-04T02:01:58;17.63;;;7.20;;
54745;SDS011;40640;48.130;11.356;2023-06-04T02:06:03;10.43;;;7.40;;
54745;SDS011;40640;48.130;11.356;2023-06-04T02:10:09;11.43;;;7.13;;
54745;SDS011;40640;48.130;11.356;2023-06-04T02:14:14;12.68;;;7.75;;
54745;SDS011;40640;48.130;11.356;2023-06-04T02:18:18;13.45;;;7.63;;
54745;SDS011;40640;48.130;11.356;2023-06-04T02:22:22;14.63;;;7.65;;
54745;SDS011;40640;48.130;11.356;2023-06-04T02:26:25;12.13;;;7.07;;
54745;SDS011;40640;48.130;11.356;2023-06-04T02:30:30;15.13;;;7.20;;
54745;SDS011;40640;48.130;11.356;2023-06-04T02:34:33;13.73;;;8.93;;
54745;SDS011;40640;48.130;11.356;2023-06-04T02:38:36;14.43;;;8.20;;
54745;SDS011;40640;48.130;11.356;2023-06-04T02:42:39;10.80;;;7.53;;
54745;SDS011;40640;48.130;11.356;2023-06-04T02:46:43;11.90;;;7.60;;
54745;SDS011;40640;48.130;11.356;2023-06-04T02:50:47;10.50;;;7.05;;
54745;SDS011;40640;48.130;11.356;2023-06-04T02:54:49;17.92;;;7.75;;
54745;SDS011;40640;48.130;11.356;2023-06-04T02:58:53;10.52;;;6.55;;
54745;SDS011;40640;48.130;11.356;2023-06-04T03:02:58;10.93;;;6.88;;
54745;SDS011;40640;48.130;11.356;2023-06-04T03:07:04;12.85;;;6.65;;
54745;SDS011;40640;48.130;11.356;2023-06-04T03:11:09;12.07;;;7.35;;
54745;SDS011;40640;48.130;11.356;2023-06-04T03:15:13;12.45;;;7.13;;
54745;SDS011;40640;48.130;11.356;2023-06-04T03:19:17;10.57;;;6.95;;
54745;SDS011;40640;48.130;11.356;2023-06-04T03:23:20;9.18;;;6.63;;
54745;SDS011;40640;48.130;11.356;2023-06-04T03:27:23;10.45;;;7.03;;
54745;SDS011;40640;48.130;11.356;2023-06-04T03:31:27;15.55;;;7.63;;
54745;SDS011;40640;48.130;11.356;2023-06-04T03:35:33;11.23;;;7.20;;
54745;SDS011;40640;48.130;11.356;2023-06-04T03:39:36;14.45;;;7.28;;
54745;SDS011;40640;48.130;11.356;2023-06-04T03:43:41;10.55;;;7.15;;
54745;SDS011;40640;48.130;11.356;2023-06-04T03:47:45;13.20;;;6.85;;
54745;SDS011;40640;48.130;11.356;2023-06-04T03:51:50;13.30;;;7.32;;
54745;SDS011;40640;48.130;11.356;2023-06-04T03:55:54;13.37;;;6.93;;
54745;SDS011;40640;48.130;11.356;2023-06-04T03:59:57;18.40;;;8.13;;
54745;SDS011;40640;48.130;11.356;2023-06-04T04:04:00;12.70;;;6.90;;
54745;SDS011;40640;48.130;11.356;2023-06-04T04:08:05;10.55;;;7.20;;
54745;SDS011;40640;48.130;11.356;2023-06-04T04:12:10;9.07;;;6.65;;
54745;SDS011;40640;48.130;11.356;2023-06-04T04:16:13;11.02;;;6.65;;
54745;SDS011;40640;48.130;11.356;2023-06-04T04:20:16;13.75;;;7.10;;
54745;SDS011;40640;48.130;11.356;2023-06-04T04:24:32;14.55;;;7.22;;
54745;SDS011;40640;48.130;11.356;2023-06-04T04:28:37;12.30;;;7.07;;
54745;SDS011;40640;48.130;11.356;2023-06-04T04:32:41;13.50;;;6.97;;
54745;SDS011;40640;48.130;11.356;2023-06-04T04:36:55;11.73;;;6.25;;
54745;SDS011;40640;48.130;11.356;2023-06-04T04:41:01;10.20;;;6.20;;
54745;SDS011;40640;48.130;11.356;2023-06-04T04:45:05;12.27;;;7.22;;
54745;SDS011;40640;48.130;11.356;2023-06-04T04:49:08;9.32;;;6.30;;
54745;SDS011;40640;48.130;11.356;2023-06-04T04:53:11;14.70;;;7.15;;
54745;SDS011;40640;48.130;11.356;2023-06-04T04:57:16;12.57;;;6.03;;
54745;SDS011;40640;48.130;11.356;2023-06-04T05:01:26;15.48;;;6.72;;
54745;SDS011;40640;48.130;11.356;2023-06-04T05:05:29;13.43;;;6.68;;
54745;SDS011;40640;48.130;11.356;2023-06-04T05:09:32;8.13;;;6.05;;
54745;SDS011;40640;48.130;11.356;2023-06-04T05:13:37;12.02;;;6.30;;
54745;SDS011;40640;48.130;11.356;2023-06-04T05:17:43;7.07;;;5.47;;
54745;SDS011;40640;48.130;11.356;2023-06-04T05:25:53;9.40;;;5.15;;
54745;SDS011;40640;48.130;11.356;2023-06-04T05:29:58;7.82;;;4.88;;
54745;SDS011;40640;48.130;11.356;2023-06-04T05:38:08;7.95;;;5.57;;
54745;SDS011;40640;48.130;11.356;2023-06-04T05:42:12;9.77;;;5.10;;
54745;SDS011;40640;48.130;11.356;2023-06-04T05:46:18;8.75;;;4.50;;
54745;SDS011;40640;48.130;11.356;2023-06-04T05:50:21;9.68;;;4.30;;
54745;SDS011;40640;48.130;11.356;2023-06-04T05:54:24;4.90;;;3.78;;
54745;SDS011;40640;48.130;11.356;2023-06-04T05:58:27;5.30;;;3.78;;
54745;SDS011;40640;48.130;11.356;2023-06-04T06:02:32;5.95;;;3.58;;
54745;SDS011;40640;48.130;11.356;2023-06-04T06:06:36;4.93;;;3.60;;
54745;SDS011;40640;48.130;11.356;2023-06-04T06:10:39;6.78;;;3.92;;
54745;SDS011;40640;48.130;11.356;2023-06-04T06:14:42;8.52;;;3.53;;
54745;SDS011;40640;48.130;11.356;2023-06-04T06:18:46;6.93;;;3.85;;
54745;SDS011;40640;48.130;11.356;2023-06-04T06:22:49;7.85;;;3.78;;
54745;SDS011;40640;48.130;11.356;2023-06-04T06:26:55;7.47;;;4.07;;
54745;SDS011;40640;48.130;11.356;2023-06-04T06:30:58;9.98;;;4.03;;
54745;SDS011;40640;48.130;11.356;2023-06-04T06:35:03;7.30;;;4.05;;
54745;SDS011;40640;48.130;11.356;2023-06-04T06:39:06;6.53;;;4.10;;
54745;SDS011;40640;48.130;11.356;2023-06-04T06:43:10;8.07;;;3.97;;
54745;SDS011;40640;48.130;11.356;2023-06-04T06:47:13;6.00;;;3.85;;
54745;SDS011;40640;48.130;11.356;2023-06-04T06:51:17;6.60;;;3.72;;
54745;SDS011;40640;48.130;11.356;2023-06-04T06:55:20;8.38;;;4.00;;
54745;SDS011;40640;48.130;11.356;2023-06-04T06:59:23;9.07;;;4.38;;
54745;SDS011;40640;48.130;11.356;2023-06-04T07:03:27;9.18;;;3.67;;
54745;SDS011;40640;48.130;11.356;2023-06-04T07:07:31;4.90;;;3.63;;
54745;SDS011;40640;48.130;11.356;2023-06-04T07:11:34;7.03;;;3.70;;
54745;SDS011;40640;48.130;11.356;2023-06-04T07:15:37;6.65;;;3.50;;
54745;SDS011;40640;48.130;11.356;2023-06-04T07:19:40;7.80;;;3.30;;
54745;SDS011;40640;48.130;11.356;2023-06-04T07:23:44;8.93;;;3.72;;
54745;SDS011;40640;48.130;11.356;2023-06-04T07:27:51;5.05;;;3.05;;
54745;SDS011;40640;48.130;11.356;2023-06-04T07:31:53;5.57;;;3.83;;
54745;SDS011;40640;48.130;11.356;2023-06-04T07:35:56;7.90;;;3.25;;
54745;SDS011;40640;48.130;11.356;2023-06-04T07:40:01;5.93;;;3.10;;
54745;SDS011;40640;48.130;11.356;2023-06-04T07:44:03;6.88;;;3.08;;
54745;SDS011;40640;48.130;11.356;2023-06-04T07:48:08;6.38;;;3.33;;
54745;SDS011;40640;48.130;11.356;2023-06-04T07:52:12;7.10;;;3.42;;
54745;SDS011;40640;48.130;11.356;2023-06-04T07:56:17;5.72;;;3.33;;
54745;SDS011;40640;48.130;11.356;2023-06-04T08:00:20;4.90;;;3.08;;
54745;SDS011;40640;48.130;11.356;2023-06-04T08:04:22;5.97;;;3.28;;
54745;SDS011;40640;48.130;11.356;2023-06-04T08:08:25;7.45;;;3.53;;
54745;SDS011;40640;48.130;11.356;2023-06-04T08:12:30;9.45;;;3.90;;
54745;SDS011;40640;48.130;11.356;2023-06-04T08:16:33;6.30;;;3.30;;
54745;SDS011;40640;48.130;11.356;2023-06-04T08:20:36;6.20;;;3.28;;
54745;SDS011;40640;48.130;11.356;2023-06-04T08:24:39;8.93;;;3.35;;
54745;SDS011;40640;48.130;11.356;2023-06-04T08:28:43;7.63;;;3.70;;
54745;SDS011;40640;48.130;11.356;2023-06-04T08:32:46;10.10;;;3.40;;
54745;SDS011;40640;48.130;11.356;2023-06-04T08:36:50;6.75;;;3.20;;
54745;SDS011;40640;48.130;11.356;2023-06-04T08:40:52;6.13;;;3.08;;
54745;SDS011;40640;48.130;11.356;2023-06-04T08:45:01;7.47;;;2.95;;
54745;SDS011;40640;48.130;11.356;2023-06-04T08:49:05;5.07;;;3.35;;
54745;SDS011;40640;48.130;11.356;2023-06-04T08:53:09;7.30;;;3.00;;
54745;SDS011;40640;48.130;11.356;2023-06-04T08:57:14;6.13;;;3.30;;
54745;SDS011;40640;48.130;11.356;2023-06-04T09:01:19;5.47;;;3.22;;
54745;SDS011;40640;48.130;11.356;2023-06-04T09:05:22;7.93;;;3.28;;
54745;SDS011;40640;48.130;11.356;2023-06-04T09:09:25;6.03;;;2.88;;
54745;SDS011;40640;48.130;11.356;2023-06-04T09:13:31;5.45;;;3.20;;
54745;SDS011;40640;48.130;11.356;2023-06-04T09:17:36;13.32;;;3.55;;
54745;SDS011;40640;48.130;11.356;2023-06-04T09:21:47;7.78;;;2.97;;
54745;SDS011;40640;48.130;11.356;2023-06-04T09:25:51;10.23;;;3.25;;
54745;SDS011;40640;48.130;11.356;2023-06-04T09:29:55;5.65;;;2.88;;
54745;SDS011;40640;48.130;11.356;2023-06-04T09:34:00;5.97;;;3.15;;
54745;SDS011;40640;48.130;11.356;2023-06-04T09:38:04;3.80;;;2.88;;
54745;SDS011;40640;48.130;11.356;2023-06-04T09:42:08;5.55;;;2.80;;
54745;SDS011;40640;48.130;11.356;2023-06-04T09:46:12;6.80;;;3.28;;
54745;SDS011;40640;48.130;11.356;2023-06-04T09:50:17;6.93;;;3.22;;
54745;SDS011;40640;48.130;11.356;2023-06-04T09:54:34;8.88;;;3.17;;
54745;SDS011;40640;48.130;11.356;2023-06-04T09:58:38;9.02;;;3.17;;
54745;SDS011;40640;48.130;11.356;2023-06-04T10:02:44;4.85;;;3.05;;
54745;SDS011;40640;48.130;11.356;2023-06-04T10:06:49;7.22;;;4.30;;
54745;SDS011;40640;48.130;11.356;2023-06-04T10:10:53;3.88;;;3.25;;
54745;SDS011;40640;48.130;11.356;2023-06-04T10:14:59;7.13;;;3.60;;
54745;SDS011;40640;48.130;11.356;2023-06-04T10:19:07;9.25;;;3.20;;
54745;SDS011;40640;48.130;11.356;2023-06-04T10:23:11;4.85;;;3.42;;
54745;SDS011;40640;48.130;11.356;2023-06-04T10:27:15;7.97;;;3.37;;
54745;SDS011;40640;48.130;11.356;2023-06-04T10:31:21;5.82;;;3.45;;
54745;SDS011;40640;48.130;11.356;2023-06-04T10:35:30;7.50;;;3.78;;
54745;SDS011;40640;48.130;11.356;2023-06-04T10:39:35;4.95;;;3.58;;
54745;SDS011;40640;48.130;11.356;2023-06-04T10:43:38;4.80;;;3.67;;
54745;SDS011;40640;48.130;11.356;2023-06-04T10:47:42;5.70;;;3.50;;
54745;SDS011;40640;48.130;11.356;2023-06-04T10:51:45;5.18;;;3.67;;
54745;SDS011;40640;48.130;11.356;2023-06-04T10:55:49;8.40;;;3.38;;
54745;SDS011;40640;48.130;11.356;2023-06-04T10:59:55;6.53;;;3.30;;
54745;SDS011;40640;48.130;11.356;2023-06-04T11:03:59;6.15;;;3.70;;
54745;SDS011;40640;48.130;11.356;2023-06-04T11:08:03;5.70;;;3.35;;
54745;SDS011;40640;48.130;11.356;2023-06-04T11:12:08;9.18;;;3.70;;
54745;SDS011;40640;48.130;11.356;2023-06-04T11:16:14;3.97;;;3.15;;
54745;SDS011;40640;48.130;11.356;2023-06-04T11:20:18;6.18;;;3.47;;
54745;SDS011;40640;48.130;11.356;2023-06-04T11:24:23;6.25;;;3.10;;
54745;SDS011;40640;48.130;11.356;2023-06-04T11:28:27;6.90;;;3.40;;
54745;SDS011;40640;48.130;11.356;2023-06-04T11:32:30;6.13;;;3.45;;
54745;SDS011;40640;48.130;11.356;2023-06-04T11:36:33;6.13;;;3.20;;
54745;SDS011;40640;48.130;11.356;2023-06-04T11:40:37;5.05;;;3.35;;
54745;SDS011;40640;48.130;11.356;2023-06-04T11:44:41;4.75;;;3.20;;
54745;SDS011;40640;48.130;11.356;2023-06-04T11:48:50;6.57;;;3.10;;
54745;SDS011;40640;48.130;11.356;2023-06-04T11:52:53;3.60;;;3.00;;
54745;SDS011;40640;48.130;11.356;2023-06-04T11:56:56;3.28;;;2.92;;
54745;SDS011;40640;48.130;11.356;2023-06-04T12:01:01;4.22;;;3.58;;
54745;SDS011;40640;48.130;11.356;2023-06-04T12:05:11;8.45;;;4.10;;
54745;SDS011;40640;48.130;11.356;2023-06-04T12:09:19;6.78;;;3.50;;
54745;SDS011;40640;48.130;11.356;2023-06-04T12:13:23;9.18;;;2.88;;
54745;SDS011;40640;48.130;11.356;2023-06-04T12:17:27;6.63;;;3.33;;
54745;SDS011;40640;48.130;11.356;2023-06-04T12:21:30;8.55;;;3.40;;
54745;SDS011;40640;48.130;11.356;2023-06-04T12:25:33;8.05;;;3.63;;
54745;SDS011;40640;48.130;11.356;2023-06-04T12:29:39;3.95;;;3.00;;
54745;SDS011;40640;48.130;11.356;2023-06-04T12:33:43;6.57;;;3.47;;
54745;SDS011;40640;48.130;11.356;2023-06-04T12:37:46;4.57;;;3.15;;
54745;SDS011;40640;48.130;11.356;2023-06-04T12:41:49;7.53;;;3.40;;
54745;SDS011;40640;48.130;11.356;2023-06-04T12:45:52;5.27;;;3.10;;
54745;SDS011;40640;48.130;11.356;2023-06-04T12:49:57;3.38;;;2.92;;
54745;SDS011;40640;48.130;11.356;2023-06-04T12:54:00;6.05;;;3.05;;
54745;SDS011;40640;48.130;11.356;2023-06-04T12:58:03;4.27;;;3.20;;
54745;SDS011;40640;48.130;11.356;2023-06-04T13:02:07;8.13;;;3.40;;
54745;SDS011;40640;48.130;11.356;2023-06-04T13:06:12;3.63;;;2.80;;
54745;SDS011;40640;48.130;11.356;2023-06-04T13:14:17;3.75;;;3.08;;
54745;SDS011;40640;48.130;11.356;2023-06-04T13:18:20;4.20;;;2.83;;
54745;SDS011;40640;48.130;11.356;2023-06-04T13:22:24;4.78;;;3.30;;
54745;SDS011;40640;48.130;11.356;2023-06-04T13:26:27;4.15;;;3.50;;
54745;SDS011;40640;48.130;11.356;2023-06-04T13:30:30;7.38;;;3.25;;
54745;SDS011;40640;48.130;11.356;2023-06-04T13:34:33;3.72;;;3.03;;
54745;SDS011;40640;48.130;11.356;2023-06-04T13:38:37;10.90;;;3.80;;
54745;SDS011;40640;48.130;11.356;2023-06-04T13:42:42;7.20;;;3.25;;
54745;SDS011;40640;48.130;11.356;2023-06-04T13:46:45;4.78;;;3.28;;
54745;SDS011;40640;48.130;11.356;2023-06-04T13:50:48;7.10;;;3.58;;
54745;SDS011;40640;48.130;11.356;2023-06-04T13:54:52;7.05;;;3.45;;
54745;SDS011;40640;48.130;11.356;2023-06-04T13:58:55;6.95;;;3.60;;
54745;SDS011;40640;48.130;11.356;2023-06-04T14:02:58;6.97;;;3.85;;
54745;SDS011;40640;48.130;11.356;2023-06-04T14:07:01;7.63;;;3.78;;
54745;SDS011;40640;48.130;11.356;2023-06-04T14:11:05;13.32;;;4.15;;
54745;SDS011;40640;48.130;11.356;2023-06-04T14:15:09;5.50;;;3.28;;
54745;SDS011;40640;48.130;11.356;2023-06-04T14:19:14;6.73;;;3.83;;
54745;SDS011;40640;48.130;11.356;2023-06-04T14:23:17;7.80;;;4.30;;
54745;SDS011;40640;48.130;11.356;2023-06-04T14:27:21;5.85;;;3.47;;
54745;SDS011;40640;48.130;11.356;2023-06-04T14:31:24;5.85;;;3.50;;
54745;SDS011;40640;48.130;11.356;2023-06-04T14:35:27;7.95;;;3.35;;
54745;SDS011;40640;48.130;11.356;2023-06-04T14:39:30;6.47;;;3.67;;
54745;SDS011;40640;48.130;11.356;2023-06-04T14:43:34;7.20;;;3.53;;
54745;SDS011;40640;48.130;11.356;2023-06-04T14:47:37;8.55;;;3.63;;
54745;SDS011;40640;48.130;11.356;2023-06-04T14:51:40;4.43;;;3.40;;
54745;SDS011;40640;48.130;11.356;2023-06-04T14:55:43;4.78;;;3.72;;
54745;SDS011;40640;48.130;11.356;2023-06-04T14:59:48;8.75;;;3.40;;
54745;SDS011;40640;48.130;11.356;2023-06-04T15:03:51;6.65;;;3.22;;
54745;SDS011;40640;48.130;11.356;2023-06-04T15:07:54;6.00;;;3.50;;
54745;SDS011;40640;48.130;11.356;2023-06-04T15:11:57;9.95;;;3.67;;
54745;SDS011;40640;48.130;11.356;2023-06-04T15:16:02;9.13;;;3.83;;
54745;SDS011;40640;48.130;11.356;2023-06-04T15:20:05;5.32;;;3.45;;
54745;SDS011;40640;48.130;11.356;2023-06-04T15:24:11;5.88;;;3.35;;
54745;SDS011;40640;48.130;11.356;2023-06-04T15:28:13;6.78;;;3.72;;
54745;SDS011;40640;48.130;11.356;2023-06-04T15:32:19;5.90;;;3.33;;
54745;SDS011;40640;48.130;11.356;2023-06-04T15:36:22;7.78;;;4.28;;
54745;SDS011;40640;48.130;11.356;2023-06-04T15:40:25;8.68;;;3.70;;
54745;SDS011;40640;48.130;11.356;2023-06-04T15:44:28;7.75;;;3.97;;
54745;SDS011;40640;48.130;11.356;2023-06-04T15:48:32;11.00;;;3.58;;
54745;SDS011;40640;48.130;11.356;2023-06-04T15:52:35;7.13;;;3.58;;
54745;SDS011;40640;48.130;11.356;2023-06-04T15:56:38;5.13;;;3.60;;
54745;SDS011;40640;48.130;11.356;2023-06-04T16:00:41;7.03;;;3.83;;
54745;SDS011;40640;48.130;11.356;2023-06-04T16:04:45;5.30;;;3.50;;
54745;SDS011;40640;48.130;11.356;2023-06-04T16:08:48;5.30;;;3.38;;
54745;SDS011;40640;48.130;11.356;2023-06-04T16:12:51;7.65;;;3.47;;
54745;SDS011;40640;48.130;11.356;2023-06-04T16:16:54;4.97;;;3.28;;
54745;SDS011;40640;48.130;11.356;2023-06-04T16:20:58;5.30;;;3.60;;
54745;SDS011;40640;48.130;11.356;2023-06-04T16:25:02;6.60;;;3.55;;
54745;SDS011;40640;48.130;11.356;2023-06-04T16:29:05;9.43;;;3.80;;
54745;SDS011;40640;48.130;11.356;2023-06-04T16:33:08;4.57;;;3.47;;
54745;SDS011;40640;48.130;11.356;2023-06-04T16:37:13;7.72;;;3.70;;
54745;SDS011;40640;48.130;11.356;2023-06-04T16:41:16;6.20;;;3.80;;
54745;SDS011;40640;48.130;11.356;2023-06-04T16:45:19;5.88;;;3.97;;
54745;SDS011;40640;48.130;11.356;2023-06-04T16:49:22;5.13;;;3.55;;
54745;SDS011;40640;48.130;11.356;2023-06-04T16:53:26;6.03;;;3.90;;
54745;SDS011;40640;48.130;11.356;2023-06-04T16:57:30;11.18;;;3.85;;
54745;SDS011;40640;48.130;11.356;2023-06-04T17:01:33;5.05;;;3.35;;
54745;SDS011;40640;48.130;11.356;2023-06-04T17:05:38;6.20;;;3.50;;
54745;SDS011;40640;48.130;11.356;2023-06-04T17:09:42;5.45;;;3.67;;
54745;SDS011;40640;48.130;11.356;2023-06-04T17:13:48;6.07;;;3.45;;
54745;SDS011;40640;48.130;11.356;2023-06-04T17:17:51;6.70;;;4.28;;
54745;SDS011;40640;48.130;11.356;2023-06-04T17:21:56;6.40;;;4.10;;
54745;SDS011;40640;48.130;11.356;2023-06-04T17:26:00;8.60;;;4.20;;
54745;SDS011;40640;48.130;11.356;2023-06-04T17:30:03;7.78;;;4.07;;
54745;SDS011;40640;48.130;11.356;2023-06-04T17:34:07;6.75;;;3.78;;
54745;SDS011;40640;48.130;11.356;2023-06-04T17:38:10;5.72;;;3.85;;
54745;SDS011;40640;48.130;11.356;2023-06-04T17:42:14;8.07;;;4.20;;
54745;SDS011;40640;48.130;11.356;2023-06-04T17:46:17;6.95;;;4.18;;
54745;SDS011;40640;48.130;11.356;2023-06-04T17:50:20;6.35;;;4.10;;
54745;SDS011;40640;48.130;11.356;2023-06-04T17:54:23;11.25;;;4.32;;
54745;SDS011;40640;48.130;11.356;2023-06-04T17:58:27;8.95;;;4.40;;
54745;SDS011;40640;48.130;11.356;2023-06-04T18:02:31;9.70;;;3.97;;
54745;SDS011;40640;48.130;11.356;2023-06-04T18:06:34;13.07;;;4.30;;
54745;SDS011;40640;48.130;11.356;2023-06-04T18:10:37;8.75;;;4.70;;
54745;SDS011;40640;48.130;11.356;2023-06-04T18:14:41;11.27;;;4.22;;
54745;SDS011;40640;48.130;11.356;2023-06-04T18:18:45;7.68;;;4.30;;
54745;SDS011;40640;48.130;11.356;2023-06-04T18:22:48;13.35;;;3.80;;
54745;SDS011;40640;48.130;11.356;2023-06-04T18:26:51;7.47;;;4.28;;
54745;SDS011;40640;48.130;11.356;2023-06-04T18:30:55;5.55;;;3.90;;
54745;SDS011;40640;48.130;11.356;2023-06-04T18:34:58;6.60;;;3.95;;
54745;SDS011;40640;48.130;11.356;2023-06-04T18:39:01;6.63;;;4.38;;
54745;SDS011;40640;48.130;11.356;2023-06-04T18:43:04;6.38;;;4.25;;
54745;SDS011;40640;48.130;11.356;2023-06-04T18:47:09;6.97;;;4.00;;
54745;SDS011;40640;48.130;11.356;2023-06-04T18:51:12;7.28;;;4.72;;
54745;SDS011;40640;48.130;11.356;2023-06-04T18:55:15;6.38;;;4.05;;
54745;SDS011;40640;48.130;11.356;2023-06-04T18:59:18;6.88;;;4.30;;
54745;SDS011;40640;48.130;11.356;2023-06-04T19:03:22;8.10;;;4.13;;
54745;SDS011;40640;48.130;11.356;2023-06-04T19:07:25;7.40;;;4.20;;
54745;SDS011;40640;48.130;11.356;2023-06-04T19:11:28;7.93;;;4.38;;
54745;SDS011;40640;48.130;11.356;2023-06-04T19:15:31;10.07;;;4.70;;
54745;SDS011;40640;48.130;11.356;2023-06-04T19:19:35;8.15;;;4.28;;
54745;SDS011;40640;48.130;11.356;2023-06-04T19:23:38;6.15;;;3.95;;
54745;SDS011;40640;48.130;11.356;2023-06-04T19:27:41;7.60;;;4.60;;
54745;SDS011;40640;48.130;11.356;2023-06-04T19:31:44;7.10;;;4.10;;
54745;SDS011;40640;48.130;11.356;2023-06-04T19:35:49;6.18;;;4.55;;
54745;SDS011;40640;48.130;11.356;2023-06-04T19:39:52;9.85;;;4.57;;
54745;SDS011;40640;48.130;11.356;2023-06-04T19:43:55;8.15;;;4.10;;
54745;SDS011;40640;48.130;11.356;2023-06-04T19:47:58;7.25;;;4.43;;
54745;SDS011;40640;48.130;11.356;2023-06-04T19:52:02;8.13;;;4.38;;
54745;SDS011;40640;48.130;11.356;2023-06-04T19:56:06;8.93;;;4.28;;
54745;SDS011;40640;48.130;11.356;2023-06-04T20:00:09;8.55;;;4.25;;
54745;SDS011;40640;48.130;11.356;2023-06-04T20:04:14;10.63;;;4.30;;
54745;SDS011;40640;48.130;11.356;2023-06-04T20:08:19;8.02;;;4.47;;
54745;SDS011;40640;48.130;11.356;2023-06-04T20:12:22;8.85;;;4.70;;
54745;SDS011;40640;48.130;11.356;2023-06-04T20:16:25;11.13;;;4.70;;
54745;SDS011;40640;48.130;11.356;2023-06-04T20:20:29;9.25;;;4.20;;
54745;SDS011;40640;48.130;11.356;2023-06-04T20:24:33;13.95;;;5.10;;
54745;SDS011;40640;48.130;11.356;2023-06-04T20:28:36;7.80;;;4.50;;
54745;SDS011;40640;48.130;11.356;2023-06-04T20:32:39;11.68;;;4.65;;
54745;SDS011;40640;48.130;11.356;2023-06-04T20:36:43;6.68;;;4.55;;
54745;SDS011;40640;48.130;11.356;2023-06-04T20:40:47;13.65;;;5.55;;
54745;SDS011;40640;48.130;11.356;2023-06-04T20:44:50;11.57;;;4.80;;
54745;SDS011;40640;48.130;11.356;2023-06-04T20:48:53;9.88;;;4.90;;
54745;SDS011;40640;48.130;11.356;2023-06-04T20:52:56;10.05;;;4.85;;
54745;SDS011;40640;48.130;11.356;2023-06-04T20:57:00;8.98;;;4.40;;
54745;SDS011;40640;48.130;11.356;2023-06-04T21:01:03;6.63;;;4.32;;
54745;SDS011;40640;48.130;11.356;2023-06-04T21:05:08;8.63;;;4.50;;
54745;SDS011;40640;48.130;11.356;2023-06-04T21:09:11;9.45;;;4.32;;
54745;SDS011;40640;48.130;11.356;2023-06-04T21:13:15;11.73;;;5.25;;
54745;SDS011;40640;48.130;11.356;2023-06-04T21:17:18;11.35;;;4.88;;
54745;SDS011;40640;48.130;11.356;2023-06-04T21:21:21;8.50;;;5.05;;
54745;SDS011;40640;48.130;11.356;2023-06-04T21:25:24;10.35;;;5.70;;
54745;SDS011;40640;48.130;11.356;2023-06-04T21:29:28;19.77;;;5.30;;
54745;SDS011;40640;48.130;11.356;2023-06-04T21:33:31;8.25;;;5.63;;
54745;SDS011;40640;48.130;11.356;2023-06-04T21:37:34;15.15;;;5.65;;
54745;SDS011;40640;48.130;11.356;2023-06-04T21:41:37;7.63;;;4.90;;
54745;SDS011;40640;48.130;11.356;2023-06-04T21:45:41;7.55;;;5.55;;
54745;SDS011;40640;48.130;11.356;2023-06-04T21:49:44;19.52;;;5.72;;
54745;SDS011;40640;48.130;11.356;2023-06-04T21:53:47;9.45;;;5.40;;
54745;SDS011;40640;48.130;11.356;2023-06-04T21:57:50;9.60;;;4.80;;
54745;SDS011;40640;48.130;11.356;2023-06-04T22:01:55;9.70;;;4.97;;
54745;SDS011;40640;48.130;11.356;2023-06-04T22:05:59;8.40;;;4.63;;
54745;SDS011;40640;48.130;11.356;2023-06-04T22:10:02;16.83;;;4.72;;
54745;SDS011;40640;48.130;11.356;2023-06-04T22:14:05;9.23;;;4.93;;
54745;SDS011;40640;48.130;11.356;2023-06-04T22:18:09;14.20;;;5.05;;
54745;SDS011;40640;48.130;11.356;2023-06-04T22:22:12;7.88;;;5.45;;
54745;SDS011;40640;48.130;11.356;2023-06-04T22:26:15;7.07;;;5.03;;
54745;SDS011;40640;48.130;11.356;2023-06-04T22:30:37;7.53;;;5.05;;
54745;SDS011;40640;48.130;11.356;2023-06-04T22:34:41;14.93;;;5.20;;
54745;SDS011;40640;48.130;11.356;2023-06-04T22:38:45;8.35;;;4.90;;
54745;SDS011;40640;48.130;11.356;2023-06-04T22:42:48;8.30;;;4.88;;
54745;SDS011;40640;48.130;11.356;2023-06-04T22:46:51;10.00;;;4.90;;
54745;SDS011;40640;48.130;11.356;2023-06-04T22:50:55;8.98;;;4.68;;
54745;SDS011;40640;48.130;11.356;2023-06-04T22:54:59;10.20;;;4.70;;
54745;SDS011;40640;48.130;11.356;2023-06-04T22:59:02;11.23;;;5.05;;
54745;SDS011;40640;48.130;11.356;2023-06-04T23:03:05;14.43;;;4.88;;
54745;SDS011;40640;48.130;11.356;2023-06-04T23:07:09;7.00;;;4.63;;
54745;SDS011;40640;48.130;11.356;2023-06-04T23:11:12;7.35;;;4.85;;
54745;SDS011;40640;48.130;11.356;2023-06-04T23:15:19;8.00;;;5.00;;
54745;SDS011;40640;48.130;11.356;2023-06-04T23:19:24;8.00;;;4.93;;
54745;SDS011;40640;48.130;11.356;2023-06-04T23:23:28;7.10;;;5.13;;
54745;SDS011;40640;48.130;11.356;2023-06-04T23:27:31;9.45;;;4.68;;
54745;SDS011;40640;48.130;11.356;2023-06-04T23:31:35;8.43;;;4.40;;
54745;SDS011;40640;48.130;11.356;2023-06-04T23:35:38;8.43;;;4.90;;
54745;SDS011;40640;48.130;11.356;2023-06-04T23:39:42;8.45;;;5.00;;
54745;SDS011;40640;48.130;11.356;2023-06-04T23:43:45;9.30;;;5.68;;
54745;SDS011;40640;48.130;11.356;2023-06-04T23:47:48;10.80;;;5.00;;
54745;SDS011;40640;48.130;11.356;2023-06-04T23:51:51;7.18;;;4.97;;
54745;SDS011;40640;48.130;11.356;2023-06-04T23:55:55;8.82;;;5.95;;
54745;SDS011;40640;48.130;11.356;2023-06-04T23:59:58;9.00;;;5.78;;
